sensor_id;sensor_type;location;lat;lon;timestamp;P1;durP1;ratioP1;P2;durP2;ratioP2
81231;SDS011;70703;55.652;37.710;2023-07-20T00:00:11;6.15;;;1.63;;
81231;SDS011;70703;55.652;37.710;2023-07-20T00:00:24;5.70;;;1.60;;
81231;SDS011;70703;55.652;37.710;2023-07-20T00:00:36;6.55;;;1.60;;
81231;SDS011;70703;55.652;37.710;2023-07-20T00:00:48;6.28;;;1.63;;
81231;SDS011;70703;55.652;37.710;2023-07-20T00:01:03;5.20;;;1.70;;
81231;SDS011;70703;55.652;37.710;2023-07-20T00:01:15;5.28;;;1.60;;
81231;SDS011;70703;55.652;37.710;2023-07-20T00:01:27;6.47;;;1.55;;
81231;SDS011;70703;55.652;37.710;2023-07-20T00:01:38;6.47;;;1.58;;
81231;SDS011;70703;55.652;37.710;2023-07-20T00:01:55;5.95;;;1.63;;
81231;SDS011;70703;55.652;37.710;2023-07-20T00:02:06;5.78;;;1.60;;
81231;SDS011;70703;55.652;37.710;2023-07-20T00:02:19;6.70;;;1.50;;
81231;SDS011;70703;55.652;37.710;2023-07-20T00:02:34;6.38;;;1.40;;
81231;SDS011;70703;55.652;37.710;2023-07-20T00:02:46;5.68;;;1.52;;
81231;SDS011;70703;55.652;37.710;2023-07-20T00:03:10;6.32;;;1.50;;
81231;SDS011;70703;55.652;37.710;2023-07-20T00:03:23;6.90;;;1.42;;
81231;SDS011;70703;55.652;37.710;2023-07-20T00:03:36;6.78;;;1.50;;
81231;SDS011;70703;55.652;37.710;2023-07-20T00:03:50;8.02;;;1.40;;
81231;SDS011;70703;55.652;37.710;2023-07-20T00:04:05;7.75;;;1.50;;
81231;SDS011;70703;55.652;37.710;2023-07-20T00:04:17;7.75;;;1.70;;
81231;SDS011;70703;55.652;37.710;2023-07-20T00:04:29;8.60;;;1.73;;
81231;SDS011;70703;55.652;37.710;2023-07-20T00:04:42;7.85;;;1.55;;
81231;SDS011;70703;55.652;37.710;2023-07-20T00:04:53;6.15;;;1.50;;
81231;SDS011;70703;55.652;37.710;2023-07-20T00:05:05;5.72;;;1.58;;
81231;SDS011;70703;55.652;37.710;2023-07-20T00:05:18;9.15;;;1.80;;
81231;SDS011;70703;55.652;37.710;2023-07-20T00:05:31;10.27;;;1.90;;
81231;SDS011;70703;55.652;37.710;2023-07-20T00:05:42;7.35;;;1.83;;
81231;SDS011;70703;55.652;37.710;2023-07-20T00:05:54;7.22;;;1.80;;
81231;SDS011;70703;55.652;37.710;2023-07-20T00:06:05;7.45;;;1.75;;
81231;SDS011;70703;55.652;37.710;2023-07-20T00:06:16;5.70;;;1.70;;
81231;SDS011;70703;55.652;37.710;2023-07-20T00:06:29;4.72;;;1.73;;
81231;SDS011;70703;55.652;37.710;2023-07-20T00:06:42;6.03;;;1.77;;
81231;SDS011;70703;55.652;37.710;2023-07-20T00:06:53;5.55;;;1.60;;
81231;SDS011;70703;55.652;37.710;2023-07-20T00:07:05;5.43;;;1.52;;
81231;SDS011;70703;55.652;37.710;2023-07-20T00:07:17;5.90;;;1.67;;
81231;SDS011;70703;55.652;37.710;2023-07-20T00:07:29;7.78;;;1.73;;
81231;SDS011;70703;55.652;37.710;2023-07-20T00:07:40;8.05;;;1.75;;
81231;SDS011;70703;55.652;37.710;2023-07-20T00:07:51;6.63;;;1.70;;
81231;SDS011;70703;55.652;37.710;2023-07-20T00:08:05;4.80;;;1.52;;
81231;SDS011;70703;55.652;37.710;2023-07-20T00:08:16;5.65;;;1.48;;
81231;SDS011;70703;55.652;37.710;2023-07-20T00:08:29;8.82;;;1.67;;
81231;SDS011;70703;55.652;37.710;2023-07-20T00:08:40;13.82;;;1.90;;
81231;SDS011;70703;55.652;37.710;2023-07-20T00:08:52;15.20;;;1.73;;
81231;SDS011;70703;55.652;37.710;2023-07-20T00:09:04;9.10;;;1.42;;
81231;SDS011;70703;55.652;37.710;2023-07-20T00:09:15;7.85;;;1.50;;
81231;SDS011;70703;55.652;37.710;2023-07-20T00:09:27;9.57;;;1.60;;
81231;SDS011;70703;55.652;37.710;2023-07-20T00:09:39;8.40;;;1.50;;
81231;SDS011;70703;55.652;37.710;2023-07-20T00:09:53;6.35;;;1.50;;
81231;SDS011;70703;55.652;37.710;2023-07-20T00:10:07;8.95;;;1.67;;
81231;SDS011;70703;55.652;37.710;2023-07-20T00:10:18;7.97;;;1.60;;
81231;SDS011;70703;55.652;37.710;2023-07-20T00:10:29;5.97;;;1.40;;
81231;SDS011;70703;55.652;37.710;2023-07-20T00:10:41;5.95;;;1.40;;
81231;SDS011;70703;55.652;37.710;2023-07-20T00:10:53;6.05;;;1.40;;
81231;SDS011;70703;55.652;37.710;2023-07-20T00:11:07;5.55;;;1.40;;
81231;SDS011;70703;55.652;37.710;2023-07-20T00:11:21;4.32;;;1.38;;
81231;SDS011;70703;55.652;37.710;2023-07-20T00:11:39;6.38;;;1.55;;
81231;SDS011;70703;55.652;37.710;2023-07-20T00:12:00;8.38;;;1.60;;
81231;SDS011;70703;55.652;37.710;2023-07-20T00:12:12;4.45;;;1.35;;
81231;SDS011;70703;55.652;37.710;2023-07-20T00:12:23;4.70;;;1.48;;
81231;SDS011;70703;55.652;37.710;2023-07-20T00:12:35;5.43;;;1.67;;
81231;SDS011;70703;55.652;37.710;2023-07-20T00:12:47;6.88;;;1.50;;
81231;SDS011;70703;55.652;37.710;2023-07-20T00:12:59;6.97;;;1.50;;
81231;SDS011;70703;55.652;37.710;2023-07-20T00:13:11;5.30;;;1.40;;
81231;SDS011;70703;55.652;37.710;2023-07-20T00:13:23;5.90;;;1.30;;
81231;SDS011;70703;55.652;37.710;2023-07-20T00:13:36;5.90;;;1.30;;
81231;SDS011;70703;55.652;37.710;2023-07-20T00:13:48;6.18;;;1.40;;
81231;SDS011;70703;55.652;37.710;2023-07-20T00:14:10;8.18;;;1.60;;
81231;SDS011;70703;55.652;37.710;2023-07-20T00:14:21;8.07;;;1.60;;
81231;SDS011;70703;55.652;37.710;2023-07-20T00:14:33;6.43;;;1.48;;
81231;SDS011;70703;55.652;37.710;2023-07-20T00:14:44;4.95;;;1.42;;
81231;SDS011;70703;55.652;37.710;2023-07-20T00:14:55;5.15;;;1.50;;
81231;SDS011;70703;55.652;37.710;2023-07-20T00:15:24;5.35;;;1.60;;
81231;SDS011;70703;55.652;37.710;2023-07-20T00:15:37;3.95;;;1.20;;
81231;SDS011;70703;55.652;37.710;2023-07-20T00:15:48;6.03;;;1.38;;
81231;SDS011;70703;55.652;37.710;2023-07-20T00:16:02;6.63;;;1.70;;
81231;SDS011;70703;55.652;37.710;2023-07-20T00:16:17;6.05;;;1.85;;
81231;SDS011;70703;55.652;37.710;2023-07-20T00:16:29;7.25;;;1.90;;
81231;SDS011;70703;55.652;37.710;2023-07-20T00:16:41;6.95;;;1.90;;
81231;SDS011;70703;55.652;37.710;2023-07-20T00:16:54;6.15;;;1.80;;
81231;SDS011;70703;55.652;37.710;2023-07-20T00:17:07;6.55;;;1.70;;
81231;SDS011;70703;55.652;37.710;2023-07-20T00:17:19;7.10;;;1.60;;
81231;SDS011;70703;55.652;37.710;2023-07-20T00:17:31;7.18;;;1.60;;
81231;SDS011;70703;55.652;37.710;2023-07-20T00:17:48;5.50;;;1.48;;
81231;SDS011;70703;55.652;37.710;2023-07-20T00:17:59;5.88;;;1.50;;
81231;SDS011;70703;55.652;37.710;2023-07-20T00:18:10;8.18;;;1.50;;
81231;SDS011;70703;55.652;37.710;2023-07-20T00:18:23;9.77;;;1.50;;
81231;SDS011;70703;55.652;37.710;2023-07-20T00:18:35;7.50;;;1.50;;
81231;SDS011;70703;55.652;37.710;2023-07-20T00:18:46;6.50;;;1.67;;
81231;SDS011;70703;55.652;37.710;2023-07-20T00:18:58;5.88;;;1.80;;
81231;SDS011;70703;55.652;37.710;2023-07-20T00:19:09;5.25;;;1.80;;
81231;SDS011;70703;55.652;37.710;2023-07-20T00:19:21;5.93;;;1.70;;
81231;SDS011;70703;55.652;37.710;2023-07-20T00:19:33;5.40;;;1.63;;
81231;SDS011;70703;55.652;37.710;2023-07-20T00:19:46;4.68;;;1.52;;
81231;SDS011;70703;55.652;37.710;2023-07-20T00:19:59;6.05;;;1.60;;
81231;SDS011;70703;55.652;37.710;2023-07-20T00:20:10;7.53;;;1.45;;
81231;SDS011;70703;55.652;37.710;2023-07-20T00:20:23;8.20;;;1.55;;
81231;SDS011;70703;55.652;37.710;2023-07-20T00:20:36;5.55;;;1.58;;
81231;SDS011;70703;55.652;37.710;2023-07-20T00:20:47;5.40;;;1.52;;
81231;SDS011;70703;55.652;37.710;2023-07-20T00:21:00;5.55;;;1.58;;
81231;SDS011;70703;55.652;37.710;2023-07-20T00:21:13;6.22;;;1.70;;
81231;SDS011;70703;55.652;37.710;2023-07-20T00:21:24;5.32;;;1.60;;
81231;SDS011;70703;55.652;37.710;2023-07-20T00:21:37;7.57;;;1.75;;
81231;SDS011;70703;55.652;37.710;2023-07-20T00:21:52;9.05;;;1.83;;
81231;SDS011;70703;55.652;37.710;2023-07-20T00:22:03;9.82;;;2.08;;
81231;SDS011;70703;55.652;37.710;2023-07-20T00:22:15;6.65;;;2.00;;
81231;SDS011;70703;55.652;37.710;2023-07-20T00:22:26;5.95;;;1.83;;
81231;SDS011;70703;55.652;37.710;2023-07-20T00:22:38;5.35;;;1.70;;
81231;SDS011;70703;55.652;37.710;2023-07-20T00:22:49;6.80;;;1.60;;
81231;SDS011;70703;55.652;37.710;2023-07-20T00:23:02;7.35;;;1.67;;
81231;SDS011;70703;55.652;37.710;2023-07-20T00:23:14;10.40;;;1.52;;
81231;SDS011;70703;55.652;37.710;2023-07-20T00:23:25;9.38;;;1.60;;
81231;SDS011;70703;55.652;37.710;2023-07-20T00:23:37;8.13;;;1.70;;
81231;SDS011;70703;55.652;37.710;2023-07-20T00:23:49;6.35;;;1.73;;
81231;SDS011;70703;55.652;37.710;2023-07-20T00:24:02;6.65;;;1.60;;
81231;SDS011;70703;55.652;37.710;2023-07-20T00:24:14;6.97;;;1.70;;
81231;SDS011;70703;55.652;37.710;2023-07-20T00:24:26;6.93;;;1.52;;
81231;SDS011;70703;55.652;37.710;2023-07-20T00:24:38;6.43;;;1.52;;
81231;SDS011;70703;55.652;37.710;2023-07-20T00:24:50;5.30;;;1.40;;
81231;SDS011;70703;55.652;37.710;2023-07-20T00:25:01;4.47;;;1.40;;
81231;SDS011;70703;55.652;37.710;2023-07-20T00:25:14;5.75;;;1.45;;
81231;SDS011;70703;55.652;37.710;2023-07-20T00:25:27;7.03;;;1.63;;
81231;SDS011;70703;55.652;37.710;2023-07-20T00:25:39;7.63;;;1.55;;
81231;SDS011;70703;55.652;37.710;2023-07-20T00:25:52;6.95;;;1.40;;
81231;SDS011;70703;55.652;37.710;2023-07-20T00:26:03;6.60;;;1.40;;
81231;SDS011;70703;55.652;37.710;2023-07-20T00:26:15;6.30;;;1.40;;
81231;SDS011;70703;55.652;37.710;2023-07-20T00:26:27;7.55;;;1.40;;
81231;SDS011;70703;55.652;37.710;2023-07-20T00:26:40;7.93;;;1.67;;
81231;SDS011;70703;55.652;37.710;2023-07-20T00:26:51;5.22;;;1.55;;
81231;SDS011;70703;55.652;37.710;2023-07-20T00:27:03;4.75;;;1.55;;
81231;SDS011;70703;55.652;37.710;2023-07-20T00:27:16;5.05;;;1.58;;
81231;SDS011;70703;55.652;37.710;2023-07-20T00:27:29;6.47;;;1.63;;
81231;SDS011;70703;55.652;37.710;2023-07-20T00:27:42;5.85;;;1.50;;
81231;SDS011;70703;55.652;37.710;2023-07-20T00:27:53;5.05;;;1.35;;
81231;SDS011;70703;55.652;37.710;2023-07-20T00:28:05;4.32;;;1.30;;
81231;SDS011;70703;55.652;37.710;2023-07-20T00:28:16;5.18;;;1.40;;
81231;SDS011;70703;55.652;37.710;2023-07-20T00:28:28;5.45;;;1.50;;
81231;SDS011;70703;55.652;37.710;2023-07-20T00:28:39;6.60;;;1.48;;
81231;SDS011;70703;55.652;37.710;2023-07-20T00:28:52;6.05;;;1.40;;
81231;SDS011;70703;55.652;37.710;2023-07-20T00:29:04;5.80;;;1.40;;
81231;SDS011;70703;55.652;37.710;2023-07-20T00:29:16;6.20;;;1.33;;
81231;SDS011;70703;55.652;37.710;2023-07-20T00:29:28;8.32;;;1.40;;
81231;SDS011;70703;55.652;37.710;2023-07-20T00:29:39;8.27;;;1.38;;
81231;SDS011;70703;55.652;37.710;2023-07-20T00:29:53;6.45;;;1.30;;
81231;SDS011;70703;55.652;37.710;2023-07-20T00:30:05;5.57;;;1.20;;
81231;SDS011;70703;55.652;37.710;2023-07-20T00:30:17;6.50;;;1.25;;
81231;SDS011;70703;55.652;37.710;2023-07-20T00:30:29;6.05;;;1.50;;
81231;SDS011;70703;55.652;37.710;2023-07-20T00:30:40;7.13;;;1.60;;
81231;SDS011;70703;55.652;37.710;2023-07-20T00:30:54;7.65;;;1.45;;
81231;SDS011;70703;55.652;37.710;2023-07-20T00:31:07;7.97;;;1.50;;
81231;SDS011;70703;55.652;37.710;2023-07-20T00:31:18;5.07;;;1.40;;
81231;SDS011;70703;55.652;37.710;2023-07-20T00:31:29;4.97;;;1.45;;
81231;SDS011;70703;55.652;37.710;2023-07-20T00:31:41;5.38;;;1.65;;
81231;SDS011;70703;55.652;37.710;2023-07-20T00:31:53;5.60;;;1.60;;
81231;SDS011;70703;55.652;37.710;2023-07-20T00:32:08;5.32;;;1.55;;
81231;SDS011;70703;55.652;37.710;2023-07-20T00:32:19;4.47;;;1.40;;
81231;SDS011;70703;55.652;37.710;2023-07-20T00:32:31;4.93;;;1.20;;
81231;SDS011;70703;55.652;37.710;2023-07-20T00:32:45;4.63;;;1.25;;
81231;SDS011;70703;55.652;37.710;2023-07-20T00:32:56;4.72;;;1.20;;
81231;SDS011;70703;55.652;37.710;2023-07-20T00:33:09;4.75;;;1.20;;
81231;SDS011;70703;55.652;37.710;2023-07-20T00:33:22;5.78;;;1.38;;
81231;SDS011;70703;55.652;37.710;2023-07-20T00:33:33;5.05;;;1.23;;
81231;SDS011;70703;55.652;37.710;2023-07-20T00:33:45;5.10;;;1.20;;
81231;SDS011;70703;55.652;37.710;2023-07-20T00:33:59;5.03;;;1.30;;
81231;SDS011;70703;55.652;37.710;2023-07-20T00:34:09;5.70;;;1.40;;
81231;SDS011;70703;55.652;37.710;2023-07-20T00:34:20;6.18;;;1.35;;
81231;SDS011;70703;55.652;37.710;2023-07-20T00:34:32;5.97;;;1.30;;
81231;SDS011;70703;55.652;37.710;2023-07-20T00:34:44;6.10;;;1.42;;
81231;SDS011;70703;55.652;37.710;2023-07-20T00:34:56;4.80;;;1.50;;
81231;SDS011;70703;55.652;37.710;2023-07-20T00:35:11;4.78;;;1.33;;
81231;SDS011;70703;55.652;37.710;2023-07-20T00:35:23;6.25;;;1.33;;
81231;SDS011;70703;55.652;37.710;2023-07-20T00:35:35;5.60;;;1.38;;
81231;SDS011;70703;55.652;37.710;2023-07-20T00:35:46;6.05;;;1.30;;
81231;SDS011;70703;55.652;37.710;2023-07-20T00:36:00;6.13;;;1.45;;
81231;SDS011;70703;55.652;37.710;2023-07-20T00:36:13;5.50;;;1.48;;
81231;SDS011;70703;55.652;37.710;2023-07-20T00:36:26;6.10;;;1.65;;
81231;SDS011;70703;55.652;37.710;2023-07-20T00:36:38;6.07;;;1.60;;
81231;SDS011;70703;55.652;37.710;2023-07-20T00:36:49;6.07;;;1.58;;
81231;SDS011;70703;55.652;37.710;2023-07-20T00:37:00;6.07;;;1.42;;
81231;SDS011;70703;55.652;37.710;2023-07-20T00:37:13;6.07;;;1.40;;
81231;SDS011;70703;55.652;37.710;2023-07-20T00:37:28;6.38;;;1.52;;
81231;SDS011;70703;55.652;37.710;2023-07-20T00:37:40;5.55;;;1.55;;
81231;SDS011;70703;55.652;37.710;2023-07-20T00:37:52;4.53;;;1.27;;
81231;SDS011;70703;55.652;37.710;2023-07-20T00:38:05;6.10;;;1.40;;
81231;SDS011;70703;55.652;37.710;2023-07-20T00:38:17;5.60;;;1.40;;
81231;SDS011;70703;55.652;37.710;2023-07-20T00:38:29;4.20;;;1.20;;
81231;SDS011;70703;55.652;37.710;2023-07-20T00:38:42;4.97;;;1.13;;
81231;SDS011;70703;55.652;37.710;2023-07-20T00:38:53;4.20;;;1.20;;
81231;SDS011;70703;55.652;37.710;2023-07-20T00:39:05;3.55;;;1.17;;
81231;SDS011;70703;55.652;37.710;2023-07-20T00:39:18;3.08;;;1.20;;
81231;SDS011;70703;55.652;37.710;2023-07-20T00:39:32;4.35;;;1.10;;
81231;SDS011;70703;55.652;37.710;2023-07-20T00:39:43;5.82;;;1.25;;
81231;SDS011;70703;55.652;37.710;2023-07-20T00:39:55;5.57;;;1.30;;
81231;SDS011;70703;55.652;37.710;2023-07-20T00:40:07;3.92;;;1.20;;
81231;SDS011;70703;55.652;37.710;2023-07-20T00:40:19;4.07;;;1.13;;
81231;SDS011;70703;55.652;37.710;2023-07-20T00:40:35;3.53;;;1.10;;
81231;SDS011;70703;55.652;37.710;2023-07-20T00:40:48;5.55;;;1.30;;
81231;SDS011;70703;55.652;37.710;2023-07-20T00:41:02;7.45;;;1.42;;
81231;SDS011;70703;55.652;37.710;2023-07-20T00:41:16;7.43;;;1.65;;
81231;SDS011;70703;55.652;37.710;2023-07-20T00:41:28;6.53;;;1.60;;
81231;SDS011;70703;55.652;37.710;2023-07-20T00:41:40;7.15;;;1.58;;
81231;SDS011;70703;55.652;37.710;2023-07-20T00:41:55;9.02;;;1.45;;
81231;SDS011;70703;55.652;37.710;2023-07-20T00:42:06;7.43;;;1.20;;
81231;SDS011;70703;55.652;37.710;2023-07-20T00:42:17;5.40;;;1.27;;
81231;SDS011;70703;55.652;37.710;2023-07-20T00:42:29;4.85;;;1.20;;
81231;SDS011;70703;55.652;37.710;2023-07-20T00:42:40;4.50;;;1.10;;
81231;SDS011;70703;55.652;37.710;2023-07-20T00:42:53;4.63;;;1.23;;
81231;SDS011;70703;55.652;37.710;2023-07-20T00:43:08;6.93;;;1.40;;
81231;SDS011;70703;55.652;37.710;2023-07-20T00:43:20;7.13;;;1.50;;
81231;SDS011;70703;55.652;37.710;2023-07-20T00:43:37;5.93;;;1.40;;
81231;SDS011;70703;55.652;37.710;2023-07-20T00:43:52;7.07;;;1.40;;
81231;SDS011;70703;55.652;37.710;2023-07-20T00:44:04;5.88;;;1.50;;
81231;SDS011;70703;55.652;37.710;2023-07-20T00:44:16;3.70;;;1.38;;
81231;SDS011;70703;55.652;37.710;2023-07-20T00:44:28;4.85;;;1.30;;
81231;SDS011;70703;55.652;37.710;2023-07-20T00:44:40;5.15;;;1.30;;
81231;SDS011;70703;55.652;37.710;2023-07-20T00:44:51;6.57;;;1.33;;
81231;SDS011;70703;55.652;37.710;2023-07-20T00:45:04;6.05;;;1.27;;
81231;SDS011;70703;55.652;37.710;2023-07-20T00:45:18;5.10;;;1.20;;
81231;SDS011;70703;55.652;37.710;2023-07-20T00:45:29;5.72;;;1.20;;
81231;SDS011;70703;55.652;37.710;2023-07-20T00:45:41;7.07;;;1.40;;
81231;SDS011;70703;55.652;37.710;2023-07-20T00:45:55;7.07;;;1.42;;
81231;SDS011;70703;55.652;37.710;2023-07-20T00:46:06;7.07;;;1.50;;
81231;SDS011;70703;55.652;37.710;2023-07-20T00:46:18;7.50;;;1.35;;
81231;SDS011;70703;55.652;37.710;2023-07-20T00:46:32;8.60;;;1.23;;
81231;SDS011;70703;55.652;37.710;2023-07-20T00:46:45;7.10;;;1.30;;
81231;SDS011;70703;55.652;37.710;2023-07-20T00:46:58;6.32;;;1.40;;
81231;SDS011;70703;55.652;37.710;2023-07-20T00:47:10;6.20;;;1.38;;
81231;SDS011;70703;55.652;37.710;2023-07-20T00:47:22;4.80;;;1.33;;
81231;SDS011;70703;55.652;37.710;2023-07-20T00:47:33;4.30;;;1.30;;
81231;SDS011;70703;55.652;37.710;2023-07-20T00:47:46;4.80;;;1.20;;
81231;SDS011;70703;55.652;37.710;2023-07-20T00:47:58;7.25;;;1.25;;
81231;SDS011;70703;55.652;37.710;2023-07-20T00:48:10;7.18;;;1.40;;
81231;SDS011;70703;55.652;37.710;2023-07-20T00:48:22;5.03;;;1.40;;
81231;SDS011;70703;55.652;37.710;2023-07-20T00:48:33;4.20;;;1.30;;
81231;SDS011;70703;55.652;37.710;2023-07-20T00:48:45;5.28;;;1.30;;
81231;SDS011;70703;55.652;37.710;2023-07-20T00:48:56;6.60;;;1.48;;
81231;SDS011;70703;55.652;37.710;2023-07-20T00:49:10;6.18;;;1.40;;
81231;SDS011;70703;55.652;37.710;2023-07-20T00:49:22;5.38;;;1.42;;
81231;SDS011;70703;55.652;37.710;2023-07-20T00:49:34;5.40;;;1.40;;
81231;SDS011;70703;55.652;37.710;2023-07-20T00:49:46;6.43;;;1.40;;
81231;SDS011;70703;55.652;37.710;2023-07-20T00:49:58;6.40;;;1.33;;
81231;SDS011;70703;55.652;37.710;2023-07-20T00:50:09;7.18;;;1.42;;
81231;SDS011;70703;55.652;37.710;2023-07-20T00:50:20;7.35;;;1.50;;
81231;SDS011;70703;55.652;37.710;2023-07-20T00:50:32;8.35;;;1.40;;
81231;SDS011;70703;55.652;37.710;2023-07-20T00:50:46;6.75;;;1.40;;
81231;SDS011;70703;55.652;37.710;2023-07-20T00:50:59;5.53;;;1.25;;
81231;SDS011;70703;55.652;37.710;2023-07-20T00:51:13;6.22;;;1.20;;
81231;SDS011;70703;55.652;37.710;2023-07-20T00:51:26;5.97;;;1.30;;
81231;SDS011;70703;55.652;37.710;2023-07-20T00:51:37;6.18;;;1.40;;
81231;SDS011;70703;55.652;37.710;2023-07-20T00:51:49;6.03;;;1.42;;
81231;SDS011;70703;55.652;37.710;2023-07-20T00:52:01;6.90;;;1.50;;
81231;SDS011;70703;55.652;37.710;2023-07-20T00:52:18;5.32;;;1.33;;
81231;SDS011;70703;55.652;37.710;2023-07-20T00:52:35;5.32;;;1.20;;
81231;SDS011;70703;55.652;37.710;2023-07-20T00:52:50;7.15;;;1.30;;
81231;SDS011;70703;55.652;37.710;2023-07-20T00:53:03;7.57;;;1.20;;
81231;SDS011;70703;55.652;37.710;2023-07-20T00:53:17;5.90;;;1.30;;
81231;SDS011;70703;55.652;37.710;2023-07-20T00:53:29;5.18;;;1.30;;
81231;SDS011;70703;55.652;37.710;2023-07-20T00:53:42;6.53;;;1.45;;
81231;SDS011;70703;55.652;37.710;2023-07-20T00:53:54;8.05;;;1.42;;
81231;SDS011;70703;55.652;37.710;2023-07-20T00:54:06;6.57;;;1.40;;
81231;SDS011;70703;55.652;37.710;2023-07-20T00:54:20;6.13;;;1.48;;
81231;SDS011;70703;55.652;37.710;2023-07-20T00:54:31;7.68;;;1.48;;
81231;SDS011;70703;55.652;37.710;2023-07-20T00:54:43;7.90;;;1.40;;
81231;SDS011;70703;55.652;37.710;2023-07-20T00:54:55;8.50;;;1.50;;
81231;SDS011;70703;55.652;37.710;2023-07-20T00:55:07;9.35;;;1.50;;
81231;SDS011;70703;55.652;37.710;2023-07-20T00:55:19;9.30;;;1.52;;
81231;SDS011;70703;55.652;37.710;2023-07-20T00:55:33;7.85;;;1.50;;
81231;SDS011;70703;55.652;37.710;2023-07-20T00:55:45;9.25;;;1.50;;
81231;SDS011;70703;55.652;37.710;2023-07-20T00:55:57;9.40;;;1.52;;
81231;SDS011;70703;55.652;37.710;2023-07-20T00:56:09;8.10;;;1.60;;
81231;SDS011;70703;55.652;37.710;2023-07-20T00:56:23;7.00;;;1.60;;
81231;SDS011;70703;55.652;37.710;2023-07-20T00:56:34;6.40;;;1.50;;
81231;SDS011;70703;55.652;37.710;2023-07-20T00:56:46;5.22;;;1.35;;
81231;SDS011;70703;55.652;37.710;2023-07-20T00:56:58;5.68;;;1.30;;
81231;SDS011;70703;55.652;37.710;2023-07-20T00:57:13;6.13;;;1.73;;
81231;SDS011;70703;55.652;37.710;2023-07-20T00:57:25;23.95;;;15.52;;
81231;SDS011;70703;55.652;37.710;2023-07-20T00:57:38;26.92;;;17.77;;
81231;SDS011;70703;55.652;37.710;2023-07-20T00:57:51;11.57;;;6.60;;
81231;SDS011;70703;55.652;37.710;2023-07-20T00:58:04;4.78;;;1.58;;
81231;SDS011;70703;55.652;37.710;2023-07-20T00:58:15;5.07;;;1.20;;
81231;SDS011;70703;55.652;37.710;2023-07-20T00:58:26;5.60;;;1.40;;
81231;SDS011;70703;55.652;37.710;2023-07-20T00:58:39;13.90;;;7.35;;
81231;SDS011;70703;55.652;37.710;2023-07-20T00:58:51;27.40;;;17.38;;
81231;SDS011;70703;55.652;37.710;2023-07-20T00:59:03;27.30;;;18.08;;
81231;SDS011;70703;55.652;37.710;2023-07-20T00:59:15;8.80;;;5.03;;
81231;SDS011;70703;55.652;37.710;2023-07-20T00:59:26;15.55;;;10.07;;
81231;SDS011;70703;55.652;37.710;2023-07-20T00:59:38;18.65;;;12.20;;
81231;SDS011;70703;55.652;37.710;2023-07-20T00:59:50;17.55;;;8.52;;
81231;SDS011;70703;55.652;37.710;2023-07-20T01:00:02;14.77;;;3.97;;
81231;SDS011;70703;55.652;37.710;2023-07-20T01:00:14;11.65;;;1.98;;
81231;SDS011;70703;55.652;37.710;2023-07-20T01:00:30;6.43;;;1.50;;
81231;SDS011;70703;55.652;37.710;2023-07-20T01:00:44;7.18;;;1.60;;
81231;SDS011;70703;55.652;37.710;2023-07-20T01:00:58;9.05;;;1.70;;
81231;SDS011;70703;55.652;37.710;2023-07-20T01:01:18;8.15;;;2.20;;
81231;SDS011;70703;55.652;37.710;2023-07-20T01:01:40;6.35;;;1.55;;
81231;SDS011;70703;55.652;37.710;2023-07-20T01:01:56;6.35;;;1.50;;
81231;SDS011;70703;55.652;37.710;2023-07-20T01:02:07;5.70;;;1.42;;
81231;SDS011;70703;55.652;37.710;2023-07-20T01:02:20;7.15;;;1.45;;
81231;SDS011;70703;55.652;37.710;2023-07-20T01:02:31;7.57;;;1.50;;
81231;SDS011;70703;55.652;37.710;2023-07-20T01:02:45;5.63;;;1.63;;
81231;SDS011;70703;55.652;37.710;2023-07-20T01:02:57;7.20;;;2.08;;
81231;SDS011;70703;55.652;37.710;2023-07-20T01:03:08;7.63;;;2.70;;
81231;SDS011;70703;55.652;37.710;2023-07-20T01:03:19;9.90;;;3.63;;
81231;SDS011;70703;55.652;37.710;2023-07-20T01:03:31;9.95;;;3.90;;
81231;SDS011;70703;55.652;37.710;2023-07-20T01:03:43;7.72;;;3.00;;
81231;SDS011;70703;55.652;37.710;2023-07-20T01:03:56;5.82;;;2.30;;
81231;SDS011;70703;55.652;37.710;2023-07-20T01:04:07;4.55;;;1.85;;
81231;SDS011;70703;55.652;37.710;2023-07-20T01:04:19;5.65;;;1.60;;
81231;SDS011;70703;55.652;37.710;2023-07-20T01:04:31;7.07;;;1.70;;
81231;SDS011;70703;55.652;37.710;2023-07-20T01:04:43;9.55;;;1.83;;
81231;SDS011;70703;55.652;37.710;2023-07-20T01:04:55;7.25;;;1.67;;
81231;SDS011;70703;55.652;37.710;2023-07-20T01:05:07;5.45;;;1.65;;
81231;SDS011;70703;55.652;37.710;2023-07-20T01:05:19;5.90;;;1.60;;
81231;SDS011;70703;55.652;37.710;2023-07-20T01:05:35;6.45;;;1.50;;
81231;SDS011;70703;55.652;37.710;2023-07-20T01:05:54;4.47;;;1.42;;
81231;SDS011;70703;55.652;37.710;2023-07-20T01:06:14;4.72;;;1.35;;
81231;SDS011;70703;55.652;37.710;2023-07-20T01:06:41;7.85;;;1.70;;
81231;SDS011;70703;55.652;37.710;2023-07-20T01:07:02;6.55;;;1.42;;
81231;SDS011;70703;55.652;37.710;2023-07-20T01:07:23;8.77;;;1.27;;
81231;SDS011;70703;55.652;37.710;2023-07-20T01:07:42;5.13;;;1.42;;
81231;SDS011;70703;55.652;37.710;2023-07-20T01:07:58;5.63;;;1.60;;
81231;SDS011;70703;55.652;37.710;2023-07-20T01:08:15;5.88;;;1.83;;
81231;SDS011;70703;55.652;37.710;2023-07-20T01:08:33;4.68;;;1.95;;
81231;SDS011;70703;55.652;37.710;2023-07-20T01:08:52;4.82;;;1.88;;
81231;SDS011;70703;55.652;37.710;2023-07-20T01:09:14;5.07;;;1.90;;
81231;SDS011;70703;55.652;37.710;2023-07-20T01:09:31;5.30;;;1.80;;
81231;SDS011;70703;55.652;37.710;2023-07-20T01:09:52;4.60;;;1.38;;
81231;SDS011;70703;55.652;37.710;2023-07-20T01:10:12;5.10;;;1.20;;
81231;SDS011;70703;55.652;37.710;2023-07-20T01:10:33;4.50;;;1.30;;
81231;SDS011;70703;55.652;37.710;2023-07-20T01:10:51;5.05;;;1.40;;
81231;SDS011;70703;55.652;37.710;2023-07-20T01:11:10;6.93;;;1.60;;
81231;SDS011;70703;55.652;37.710;2023-07-20T01:11:28;5.43;;;1.50;;
81231;SDS011;70703;55.652;37.710;2023-07-20T01:11:49;5.80;;;1.50;;
81231;SDS011;70703;55.652;37.710;2023-07-20T01:12:07;4.63;;;1.60;;
81231;SDS011;70703;55.652;37.710;2023-07-20T01:12:25;4.88;;;1.80;;
81231;SDS011;70703;55.652;37.710;2023-07-20T01:12:40;5.57;;;1.70;;
81231;SDS011;70703;55.652;37.710;2023-07-20T01:12:52;5.38;;;1.58;;
81231;SDS011;70703;55.652;37.710;2023-07-20T01:13:06;5.78;;;1.60;;
81231;SDS011;70703;55.652;37.710;2023-07-20T01:13:22;7.38;;;1.80;;
81231;SDS011;70703;55.652;37.710;2023-07-20T01:13:37;5.85;;;1.80;;
81231;SDS011;70703;55.652;37.710;2023-07-20T01:13:49;5.60;;;1.67;;
81231;SDS011;70703;55.652;37.710;2023-07-20T01:14:01;7.00;;;1.70;;
81231;SDS011;70703;55.652;37.710;2023-07-20T01:14:13;6.32;;;1.60;;
81231;SDS011;70703;55.652;37.710;2023-07-20T01:14:25;5.38;;;1.60;;
81231;SDS011;70703;55.652;37.710;2023-07-20T01:14:39;5.63;;;1.70;;
81231;SDS011;70703;55.652;37.710;2023-07-20T01:14:51;6.65;;;1.48;;
81231;SDS011;70703;55.652;37.710;2023-07-20T01:15:04;6.28;;;1.30;;
81231;SDS011;70703;55.652;37.710;2023-07-20T01:15:18;3.80;;;1.40;;
81231;SDS011;70703;55.652;37.710;2023-07-20T01:15:31;4.35;;;1.40;;
81231;SDS011;70703;55.652;37.710;2023-07-20T01:15:48;4.20;;;1.20;;
81231;SDS011;70703;55.652;37.710;2023-07-20T01:16:01;3.83;;;1.20;;
81231;SDS011;70703;55.652;37.710;2023-07-20T01:16:13;5.60;;;1.40;;
81231;SDS011;70703;55.652;37.710;2023-07-20T01:16:25;6.25;;;1.40;;
81231;SDS011;70703;55.652;37.710;2023-07-20T01:16:38;6.65;;;1.50;;
81231;SDS011;70703;55.652;37.710;2023-07-20T01:16:51;5.68;;;1.42;;
81231;SDS011;70703;55.652;37.710;2023-07-20T01:17:03;6.07;;;1.30;;
81231;SDS011;70703;55.652;37.710;2023-07-20T01:17:18;4.72;;;1.20;;
81231;SDS011;70703;55.652;37.710;2023-07-20T01:17:30;5.22;;;1.30;;